Overview Statistics Trail Chart Weather Telemetry Raw packets
 

This is the latest recevied telemetry packets stored in our database for station/object DF2SI-1. If no packets are shown the sender has not sent any telemetry packets the latest 10 day(s).

Telemetry packets is used to share measurements like repeteater parameters, battery voltage, radiation readings (or any other measurements).

<< 1 2 3 4 >>
Time Press* Temp.in* Hum* eGAS* Temp.out*
1788282915 959 hPa 35.4 C deg 29.4 % 269 - 0 C deg
1788281099 959 hPa 35.3 C deg 29.5 % 269 - 0 C deg
1788279285 959 hPa 35.2 C deg 29.7 % 270 - 0 C deg
1788277470 958.9 hPa 35.2 C deg 29.7 % 268 - 0 C deg
1788273841 958.9 hPa 35.3 C deg 29.6 % 270 - 0 C deg
1788272025 959 hPa 35.2 C deg 29.3 % 275 - 0 C deg
1788270208 959.2 hPa 35.3 C deg 29.4 % 275 - 0 C deg
1788268393 959.3 hPa 35.3 C deg 29.6 % 272 - 0 C deg
1788266581 959.6 hPa 35.2 C deg 29.7 % 271 - 0 C deg
1788264764 959.8 hPa 35.2 C deg 29.8 % 270 - 0 C deg
1788262948 959.8 hPa 35.3 C deg 29.8 % 269 - 0 C deg
1788261132 959.9 hPa 35.3 C deg 29.9 % 269 - 0 C deg
1788259320 960.1 hPa 35.3 C deg 29.9 % 269 - 0 C deg
1788257502 960.3 hPa 35.3 C deg 30.2 % 265 - 0 C deg
1788255690 960.4 hPa 35.2 C deg 30.4 % 266 - 0 C deg
1788253874 960.5 hPa 35.1 C deg 30.6 % 267 - 0 C deg
1788252059 960.5 hPa 35.1 C deg 30.7 % 268 - 0 C deg
1788250245 960.5 hPa 35 C deg 30.8 % 268 - 0 C deg
1788248439 960.3 hPa 34.9 C deg 30.9 % 268 - 0 C deg
1788246618 960.2 hPa 34.9 C deg 30.8 % 271 - 0 C deg
1788244799 960.2 hPa 34.7 C deg 31.3 % 270 - 0 C deg
1788242984 960.1 hPa 34.4 C deg 31.4 % 275 - 0 C deg
1788241170 960 hPa 34.3 C deg 31.4 % 276 - 0 C deg
1788239354 960 hPa 34.3 C deg 31.5 % 274 - 0 C deg
1788237541 959.8 hPa 34.3 C deg 31.6 % 273 - 0 C deg
*Used Equation Coefficients:
Press: 0, 1, 0
Temp.in: 0, 1, 0
Hum: 0, 1, 0
eGAS: 0, 1, 0
Temp.out: 0, 1, 0

  • The parameter names for the analog channels will be Value1, Value2, Value3 (up to Value5) if station has not sent a PARAM-packet that specifies the parameter names for each analog channel.
  • Each analog value is a decimal number between 000 and 255 (according to APRS specifications). The receiver use the telemetry equation coefficientsto to restore the original sensor values. If no EQNS-packet with equation coefficients is sent we will show the values as is (this corresponds to the equation coefficients a=0, b=1 and c=0).
    The sent equation coefficients is used in the equation: a * value2 + b * value + c.
  • The units for the analog values will not be shown if station has not sent a UNIT-packet specifying what unit's to use.
  • The parameter names for the digital bits will be Bit1, Bit2, Bit3 (up to Bit8) if station has not sent a PARAM-packet that specifies the parameter names for each digital bit.
  • All bit labels will be named "On" if station has not sent a UNIT-packet that specifies the label of each bit.
  • A bit is considered to be On when the bit is 1 if station has not sent a BITS-packet that specifies another "Bit sense" (a BITS-packet specify the state of the bits that match the BIT labels)